sensor_id;sensor_type;location;lat;lon;timestamp;temperature;humidity
65478;SHT31;53678;39.642;22.430;2023-09-30T00:01:27;20.25;85.11
65478;SHT31;53678;39.642;22.430;2023-09-30T00:03:52;20.32;85.71
65478;SHT31;53678;39.642;22.430;2023-09-30T00:06:19;20.30;85.21
65478;SHT31;53678;39.642;22.430;2023-09-30T00:08:46;20.34;83.27
65478;SHT31;53678;39.642;22.430;2023-09-30T00:11:15;20.44;81.77
65478;SHT31;53678;39.642;22.430;2023-09-30T00:13:42;20.50;81.91
65478;SHT31;53678;39.642;22.430;2023-09-30T00:16:08;20.47;82.98
65478;SHT31;53678;39.642;22.430;2023-09-30T00:18:33;20.41;83.75
65478;SHT31;53678;39.642;22.430;2023-09-30T00:20:59;20.46;82.84
65478;SHT31;53678;39.642;22.430;2023-09-30T00:23:25;20.44;83.30
65478;SHT31;53678;39.642;22.430;2023-09-30T00:25:50;20.40;82.98
65478;SHT31;53678;39.642;22.430;2023-09-30T00:28:16;20.32;81.32
65478;SHT31;53678;39.642;22.430;2023-09-30T00:30:42;20.20;82.41
65478;SHT31;53678;39.642;22.430;2023-09-30T00:33:11;20.05;82.65
65478;SHT31;53678;39.642;22.430;2023-09-30T00:35:37;20.13;82.68
65478;SHT31;53678;39.642;22.430;2023-09-30T00:38:03;20.16;82.21
65478;SHT31;53678;39.642;22.430;2023-09-30T00:40:28;20.20;81.59
65478;SHT31;53678;39.642;22.430;2023-09-30T00:42:59;20.25;81.47
65478;SHT31;53678;39.642;22.430;2023-09-30T00:45:25;20.29;81.37
65478;SHT31;53678;39.642;22.430;2023-09-30T00:47:50;20.37;81.26
65478;SHT31;53678;39.642;22.430;2023-09-30T00:50:19;20.40;81.00
65478;SHT31;53678;39.642;22.430;2023-09-30T00:52:46;20.40;81.04
65478;SHT31;53678;39.642;22.430;2023-09-30T00:55:16;20.44;81.05
65478;SHT31;53678;39.642;22.430;2023-09-30T00:57:42;20.47;81.34
65478;SHT31;53678;39.642;22.430;2023-09-30T01:00:10;20.47;81.26
65478;SHT31;53678;39.642;22.430;2023-09-30T01:02:39;20.51;81.27
65478;SHT31;53678;39.642;22.430;2023-09-30T01:05:07;20.44;80.83
65478;SHT31;53678;39.642;22.430;2023-09-30T01:07:34;20.40;80.98
65478;SHT31;53678;39.642;22.430;2023-09-30T01:10:01;20.41;80.79
65478;SHT31;53678;39.642;22.430;2023-09-30T01:12:27;20.43;81.07
65478;SHT31;53678;39.642;22.430;2023-09-30T01:14:57;20.43;80.73
65478;SHT31;53678;39.642;22.430;2023-09-30T01:17:24;20.43;80.82
65478;SHT31;53678;39.642;22.430;2023-09-30T01:19:50;20.37;80.92
65478;SHT31;53678;39.642;22.430;2023-09-30T01:22:17;20.25;82.91
65478;SHT31;53678;39.642;22.430;2023-09-30T01:24:43;20.10;84.07
65478;SHT31;53678;39.642;22.430;2023-09-30T01:27:09;20.10;83.93
65478;SHT31;53678;39.642;22.430;2023-09-30T01:29:35;20.09;84.02
65478;SHT31;53678;39.642;22.430;2023-09-30T01:32:07;20.09;84.07
65478;SHT31;53678;39.642;22.430;2023-09-30T01:34:36;20.17;83.71
65478;SHT31;53678;39.642;22.430;2023-09-30T01:37:02;20.15;83.76
65478;SHT31;53678;39.642;22.430;2023-09-30T01:39:28;20.00;84.39
65478;SHT31;53678;39.642;22.430;2023-09-30T01:41:55;19.96;83.88
65478;SHT31;53678;39.642;22.430;2023-09-30T01:44:21;19.93;83.74
65478;SHT31;53678;39.642;22.430;2023-09-30T01:46:47;20.02;84.24
65478;SHT31;53678;39.642;22.430;2023-09-30T01:49:13;19.95;83.72
65478;SHT31;53678;39.642;22.430;2023-09-30T01:51:39;19.97;84.10
65478;SHT31;53678;39.642;22.430;2023-09-30T01:54:05;19.97;83.77
65478;SHT31;53678;39.642;22.430;2023-09-30T01:56:31;19.90;84.10
65478;SHT31;53678;39.642;22.430;2023-09-30T01:58:59;19.89;84.04
65478;SHT31;53678;39.642;22.430;2023-09-30T02:01:25;19.85;84.22
65478;SHT31;53678;39.642;22.430;2023-09-30T02:03:50;19.88;84.48
65478;SHT31;53678;39.642;22.430;2023-09-30T02:06:16;19.92;84.40
65478;SHT31;53678;39.642;22.430;2023-09-30T02:08:43;20.00;84.22
65478;SHT31;53678;39.642;22.430;2023-09-30T02:11:10;20.09;83.94
65478;SHT31;53678;39.642;22.430;2023-09-30T02:13:39;20.15;83.70
65478;SHT31;53678;39.642;22.430;2023-09-30T02:16:05;20.17;83.78
65478;SHT31;53678;39.642;22.430;2023-09-30T02:18:31;20.12;84.39
65478;SHT31;53678;39.642;22.430;2023-09-30T02:20:59;20.10;84.43
65478;SHT31;53678;39.642;22.430;2023-09-30T02:23:27;20.16;84.19
65478;SHT31;53678;39.642;22.430;2023-09-30T02:25:52;20.34;83.76
65478;SHT31;53678;39.642;22.430;2023-09-30T02:28:18;20.15;84.77
65478;SHT31;53678;39.642;22.430;2023-09-30T02:30:44;20.25;84.45
65478;SHT31;53678;39.642;22.430;2023-09-30T02:33:10;20.10;85.45
65478;SHT31;53678;39.642;22.430;2023-09-30T02:35:35;20.05;86.05
65478;SHT31;53678;39.642;22.430;2023-09-30T02:38:04;19.88;86.46
65478;SHT31;53678;39.642;22.430;2023-09-30T02:40:30;19.99;86.67
65478;SHT31;53678;39.642;22.430;2023-09-30T02:42:56;20.00;85.92
65478;SHT31;53678;39.642;22.430;2023-09-30T02:45:23;20.05;84.11
65478;SHT31;53678;39.642;22.430;2023-09-30T02:47:49;19.99;84.03
65478;SHT31;53678;39.642;22.430;2023-09-30T02:50:15;19.89;84.38
65478;SHT31;53678;39.642;22.430;2023-09-30T02:52:40;19.68;84.53
65478;SHT31;53678;39.642;22.430;2023-09-30T02:55:08;19.57;84.43
65478;SHT31;53678;39.642;22.430;2023-09-30T02:57:34;19.57;84.51
65478;SHT31;53678;39.642;22.430;2023-09-30T03:00:05;19.64;84.71
65478;SHT31;53678;39.642;22.430;2023-09-30T03:02:58;18.99;87.41
65478;SHT31;53678;39.642;22.430;2023-09-30T03:05:24;18.99;88.57
65478;SHT31;53678;39.642;22.430;2023-09-30T03:07:51;19.11;88.91
65478;SHT31;53678;39.642;22.430;2023-09-30T03:10:17;19.18;88.98
65478;SHT31;53678;39.642;22.430;2023-09-30T03:12:49;19.03;87.56
65478;SHT31;53678;39.642;22.430;2023-09-30T03:15:16;18.76;89.61
65478;SHT31;53678;39.642;22.430;2023-09-30T03:17:42;18.75;90.42
65478;SHT31;53678;39.642;22.430;2023-09-30T03:20:10;18.83;90.74
65478;SHT31;53678;39.642;22.430;2023-09-30T03:22:41;18.80;90.72
65478;SHT31;53678;39.642;22.430;2023-09-30T03:25:11;18.70;90.26
65478;SHT31;53678;39.642;22.430;2023-09-30T03:27:37;18.82;90.36
65478;SHT31;53678;39.642;22.430;2023-09-30T03:30:04;18.92;90.17
65478;SHT31;53678;39.642;22.430;2023-09-30T03:32:31;19.04;90.04
65478;SHT31;53678;39.642;22.430;2023-09-30T03:34:59;19.14;89.63
65478;SHT31;53678;39.642;22.430;2023-09-30T03:37:27;19.26;88.62
65478;SHT31;53678;39.642;22.430;2023-09-30T03:39:56;19.34;87.42
65478;SHT31;53678;39.642;22.430;2023-09-30T03:42:22;19.30;86.97
65478;SHT31;53678;39.642;22.430;2023-09-30T03:44:47;19.23;86.65
65478;SHT31;53678;39.642;22.430;2023-09-30T03:47:18;19.31;87.01
65478;SHT31;53678;39.642;22.430;2023-09-30T03:49:44;19.37;87.32
65478;SHT31;53678;39.642;22.430;2023-09-30T03:52:10;19.41;86.70
65478;SHT31;53678;39.642;22.430;2023-09-30T03:54:36;19.41;86.49
65478;SHT31;53678;39.642;22.430;2023-09-30T03:57:03;19.39;86.03
65478;SHT31;53678;39.642;22.430;2023-09-30T03:59:29;19.32;86.37
65478;SHT31;53678;39.642;22.430;2023-09-30T04:01:56;19.26;85.97
65478;SHT31;53678;39.642;22.430;2023-09-30T04:04:23;19.26;86.18
65478;SHT31;53678;39.642;22.430;2023-09-30T04:06:49;19.30;85.87
65478;SHT31;53678;39.642;22.430;2023-09-30T04:09:17;19.14;85.51
65478;SHT31;53678;39.642;22.430;2023-09-30T04:11:43;19.11;85.83
65478;SHT31;53678;39.642;22.430;2023-09-30T04:14:09;19.17;85.43
65478;SHT31;53678;39.642;22.430;2023-09-30T04:16:35;19.14;84.92
65478;SHT31;53678;39.642;22.430;2023-09-30T04:19:03;19.20;85.39
65478;SHT31;53678;39.642;22.430;2023-09-30T04:21:29;19.28;85.63
65478;SHT31;53678;39.642;22.430;2023-09-30T04:23:59;19.37;84.20
65478;SHT31;53678;39.642;22.430;2023-09-30T04:26:24;19.30;84.87
65478;SHT31;53678;39.642;22.430;2023-09-30T04:28:51;19.26;85.12
65478;SHT31;53678;39.642;22.430;2023-09-30T04:31:17;19.20;85.13
65478;SHT31;53678;39.642;22.430;2023-09-30T04:33:43;19.14;84.98
65478;SHT31;53678;39.642;22.430;2023-09-30T04:36:09;19.18;84.40
65478;SHT31;53678;39.642;22.430;2023-09-30T04:38:36;19.30;84.45
65478;SHT31;53678;39.642;22.430;2023-09-30T04:41:05;19.35;83.59
65478;SHT31;53678;39.642;22.430;2023-09-30T04:43:33;19.34;83.77
65478;SHT31;53678;39.642;22.430;2023-09-30T04:45:59;19.24;84.14
65478;SHT31;53678;39.642;22.430;2023-09-30T04:48:25;19.20;83.65
65478;SHT31;53678;39.642;22.430;2023-09-30T04:50:51;19.28;83.81
65478;SHT31;53678;39.642;22.430;2023-09-30T04:53:18;19.32;83.56
65478;SHT31;53678;39.642;22.430;2023-09-30T04:55:44;19.31;83.53
65478;SHT31;53678;39.642;22.430;2023-09-30T04:58:10;19.46;83.10
65478;SHT31;53678;39.642;22.430;2023-09-30T05:00:36;19.39;83.31
65478;SHT31;53678;39.642;22.430;2023-09-30T05:03:02;19.37;83.31
65478;SHT31;53678;39.642;22.430;2023-09-30T05:05:29;19.47;83.49
65478;SHT31;53678;39.642;22.430;2023-09-30T05:07:55;19.46;83.39
65478;SHT31;53678;39.642;22.430;2023-09-30T05:10:21;19.54;83.51
65478;SHT31;53678;39.642;22.430;2023-09-30T05:12:46;19.89;82.53
65478;SHT31;53678;39.642;22.430;2023-09-30T05:15:13;20.05;81.66
65478;SHT31;53678;39.642;22.430;2023-09-30T05:17:43;20.09;80.94
65478;SHT31;53678;39.642;22.430;2023-09-30T05:20:12;20.08;81.33
65478;SHT31;53678;39.642;22.430;2023-09-30T05:22:41;20.09;81.23
65478;SHT31;53678;39.642;22.430;2023-09-30T05:25:10;20.02;81.34
65478;SHT31;53678;39.642;22.430;2023-09-30T05:27:36;20.04;81.58
65478;SHT31;53678;39.642;22.430;2023-09-30T05:30:04;20.13;81.93
65478;SHT31;53678;39.642;22.430;2023-09-30T05:32:32;20.12;81.23
65478;SHT31;53678;39.642;22.430;2023-09-30T05:34:58;20.15;81.59
65478;SHT31;53678;39.642;22.430;2023-09-30T05:37:24;20.48;80.94
65478;SHT31;53678;39.642;22.430;2023-09-30T05:39:50;20.51;80.12
65478;SHT31;53678;39.642;22.430;2023-09-30T05:42:16;20.44;82.00
65478;SHT31;53678;39.642;22.430;2023-09-30T05:44:44;20.43;81.29
65478;SHT31;53678;39.642;22.430;2023-09-30T05:47:11;20.51;81.94
65478;SHT31;53678;39.642;22.430;2023-09-30T05:49:37;20.33;81.82
65478;SHT31;53678;39.642;22.430;2023-09-30T05:52:03;20.22;82.78
65478;SHT31;53678;39.642;22.430;2023-09-30T05:54:29;20.23;84.11
65478;SHT31;53678;39.642;22.430;2023-09-30T05:56:55;19.93;84.67
65478;SHT31;53678;39.642;22.430;2023-09-30T05:59:22;19.79;85.91
65478;SHT31;53678;39.642;22.430;2023-09-30T06:01:50;19.62;86.51
65478;SHT31;53678;39.642;22.430;2023-09-30T06:04:16;19.75;86.64
65478;SHT31;53678;39.642;22.430;2023-09-30T06:06:42;19.75;86.15
65478;SHT31;53678;39.642;22.430;2023-09-30T06:09:09;19.64;86.51
65478;SHT31;53678;39.642;22.430;2023-09-30T06:11:37;19.67;86.92
65478;SHT31;53678;39.642;22.430;2023-09-30T06:14:03;19.82;86.03
65478;SHT31;53678;39.642;22.430;2023-09-30T06:16:32;19.72;86.98
65478;SHT31;53678;39.642;22.430;2023-09-30T06:18:58;19.99;86.14
65478;SHT31;53678;39.642;22.430;2023-09-30T06:21:24;20.30;85.82
65478;SHT31;53678;39.642;22.430;2023-09-30T06:23:54;20.78;83.32
65478;SHT31;53678;39.642;22.430;2023-09-30T06:26:20;20.83;83.14
65478;SHT31;53678;39.642;22.430;2023-09-30T06:28:46;20.81;82.95
65478;SHT31;53678;39.642;22.430;2023-09-30T06:31:13;20.74;82.31
65478;SHT31;53678;39.642;22.430;2023-09-30T06:33:39;20.71;83.12
65478;SHT31;53678;39.642;22.430;2023-09-30T06:36:09;20.74;83.08
65478;SHT31;53678;39.642;22.430;2023-09-30T06:38:36;20.83;83.23
65478;SHT31;53678;39.642;22.430;2023-09-30T06:41:03;20.67;82.93
65478;SHT31;53678;39.642;22.430;2023-09-30T06:43:31;20.77;83.64
65478;SHT31;53678;39.642;22.430;2023-09-30T06:45:57;20.81;82.63
65478;SHT31;53678;39.642;22.430;2023-09-30T06:48:23;21.06;82.17
65478;SHT31;53678;39.642;22.430;2023-09-30T06:50:49;21.22;81.33
65478;SHT31;53678;39.642;22.430;2023-09-30T06:53:16;21.29;80.91
65478;SHT31;53678;39.642;22.430;2023-09-30T06:55:42;21.47;80.48
65478;SHT31;53678;39.642;22.430;2023-09-30T06:58:11;21.47;79.93
65478;SHT31;53678;39.642;22.430;2023-09-30T07:00:38;21.47;80.40
65478;SHT31;53678;39.642;22.430;2023-09-30T07:03:04;21.59;78.62
65478;SHT31;53678;39.642;22.430;2023-09-30T07:05:30;22.07;77.00
65478;SHT31;53678;39.642;22.430;2023-09-30T07:07:56;22.04;75.86
65478;SHT31;53678;39.642;22.430;2023-09-30T07:10:24;21.98;76.81
65478;SHT31;53678;39.642;22.430;2023-09-30T07:12:50;21.89;76.78
65478;SHT31;53678;39.642;22.430;2023-09-30T07:15:16;21.96;76.91
65478;SHT31;53678;39.642;22.430;2023-09-30T07:17:41;22.04;76.56
65478;SHT31;53678;39.642;22.430;2023-09-30T07:20:09;22.07;76.21
65478;SHT31;53678;39.642;22.430;2023-09-30T07:22:35;22.28;76.24
65478;SHT31;53678;39.642;22.430;2023-09-30T07:25:01;22.49;75.25
65478;SHT31;53678;39.642;22.430;2023-09-30T07:27:27;22.27;74.39
65478;SHT31;53678;39.642;22.430;2023-09-30T07:29:53;22.58;74.49
65478;SHT31;53678;39.642;22.430;2023-09-30T07:32:19;22.95;73.48
65478;SHT31;53678;39.642;22.430;2023-09-30T07:34:48;23.43;72.10
65478;SHT31;53678;39.642;22.430;2023-09-30T07:37:13;23.64;70.52
65478;SHT31;53678;39.642;22.430;2023-09-30T07:39:39;23.78;70.31
65478;SHT31;53678;39.642;22.430;2023-09-30T07:42:08;23.62;71.10
65478;SHT31;53678;39.642;22.430;2023-09-30T07:44:34;23.92;70.44
65478;SHT31;53678;39.642;22.430;2023-09-30T07:47:03;24.24;69.39
65478;SHT31;53678;39.642;22.430;2023-09-30T07:49:29;23.99;69.46
65478;SHT31;53678;39.642;22.430;2023-09-30T07:51:55;24.44;68.85
65478;SHT31;53678;39.642;22.430;2023-09-30T07:54:21;24.43;69.03
65478;SHT31;53678;39.642;22.430;2023-09-30T07:56:47;24.30;68.77
65478;SHT31;53678;39.642;22.430;2023-09-30T07:59:14;24.03;69.49
65478;SHT31;53678;39.642;22.430;2023-09-30T08:01:41;23.89;69.39
65478;SHT31;53678;39.642;22.430;2023-09-30T08:04:07;23.55;71.63
65478;SHT31;53678;39.642;22.430;2023-09-30T08:06:34;24.17;69.72
65478;SHT31;53678;39.642;22.430;2023-09-30T08:08:59;24.17;70.45
65478;SHT31;53678;39.642;22.430;2023-09-30T08:11:25;24.03;69.68
65478;SHT31;53678;39.642;22.430;2023-09-30T08:13:56;23.57;70.36
65478;SHT31;53678;39.642;22.430;2023-09-30T08:16:22;23.14;70.91
65478;SHT31;53678;39.642;22.430;2023-09-30T08:18:47;22.87;71.68
65478;SHT31;53678;39.642;22.430;2023-09-30T08:21:14;22.75;72.14
65478;SHT31;53678;39.642;22.430;2023-09-30T08:23:39;22.66;72.66
65478;SHT31;53678;39.642;22.430;2023-09-30T08:26:05;22.83;72.66
65478;SHT31;53678;39.642;22.430;2023-09-30T08:28:32;22.70;72.69
65478;SHT31;53678;39.642;22.430;2023-09-30T08:31:07;22.65;73.26
65478;SHT31;53678;39.642;22.430;2023-09-30T08:33:34;22.56;73.27
65478;SHT31;53678;39.642;22.430;2023-09-30T08:36:04;22.38;73.67
65478;SHT31;53678;39.642;22.430;2023-09-30T08:38:40;22.41;73.78
65478;SHT31;53678;39.642;22.430;2023-09-30T08:41:07;22.47;73.81
65478;SHT31;53678;39.642;22.430;2023-09-30T08:43:37;22.41;74.37
65478;SHT31;53678;39.642;22.430;2023-09-30T08:46:04;22.44;74.24
65478;SHT31;53678;39.642;22.430;2023-09-30T08:48:34;22.60;73.80
65478;SHT31;53678;39.642;22.430;2023-09-30T08:51:01;22.75;73.06
65478;SHT31;53678;39.642;22.430;2023-09-30T08:53:29;22.73;73.00
65478;SHT31;53678;39.642;22.430;2023-09-30T08:55:56;22.53;73.14
65478;SHT31;53678;39.642;22.430;2023-09-30T08:58:26;22.65;72.32
65478;SHT31;53678;39.642;22.430;2023-09-30T09:00:53;22.72;72.51
65478;SHT31;53678;39.642;22.430;2023-09-30T09:03:19;22.83;71.84
65478;SHT31;53678;39.642;22.430;2023-09-30T09:05:52;22.99;71.41
65478;SHT31;53678;39.642;22.430;2023-09-30T09:08:19;22.93;71.14
65478;SHT31;53678;39.642;22.430;2023-09-30T09:10:59;23.00;71.47
65478;SHT31;53678;39.642;22.430;2023-09-30T09:13:26;23.13;71.39
65478;SHT31;53678;39.642;22.430;2023-09-30T09:16:08;23.58;70.29
65478;SHT31;53678;39.642;22.430;2023-09-30T09:18:35;23.84;69.88
65478;SHT31;53678;39.642;22.430;2023-09-30T09:21:11;23.90;69.77
65478;SHT31;53678;39.642;22.430;2023-09-30T09:23:47;24.08;69.30
65478;SHT31;53678;39.642;22.430;2023-09-30T09:26:27;24.29;69.45
65478;SHT31;53678;39.642;22.430;2023-09-30T09:29:00;24.39;69.40
65478;SHT31;53678;39.642;22.430;2023-09-30T09:31:27;24.43;69.42
65478;SHT31;53678;39.642;22.430;2023-09-30T09:33:53;24.54;69.81
65478;SHT31;53678;39.642;22.430;2023-09-30T09:36:19;24.64;69.64
65478;SHT31;53678;39.642;22.430;2023-09-30T09:38:47;24.43;69.77
65478;SHT31;53678;39.642;22.430;2023-09-30T09:41:14;24.49;70.11
65478;SHT31;53678;39.642;22.430;2023-09-30T09:43:42;24.63;69.94
65478;SHT31;53678;39.642;22.430;2023-09-30T09:46:10;24.67;69.47
65478;SHT31;53678;39.642;22.430;2023-09-30T09:48:36;24.59;68.97
65478;SHT31;53678;39.642;22.430;2023-09-30T09:51:03;24.63;69.51
65478;SHT31;53678;39.642;22.430;2023-09-30T09:53:30;24.85;69.16
65478;SHT31;53678;39.642;22.430;2023-09-30T09:55:59;24.85;68.60
65478;SHT31;53678;39.642;22.430;2023-09-30T09:58:27;25.02;68.09
65478;SHT31;53678;39.642;22.430;2023-09-30T10:00:53;24.70;67.99
65478;SHT31;53678;39.642;22.430;2023-09-30T10:03:18;24.57;68.68
65478;SHT31;53678;39.642;22.430;2023-09-30T10:05:45;24.84;68.51
65478;SHT31;53678;39.642;22.430;2023-09-30T10:08:14;24.84;69.16
65478;SHT31;53678;39.642;22.430;2023-09-30T10:10:44;25.09;67.88
65478;SHT31;53678;39.642;22.430;2023-09-30T10:19:30;25.11;67.88
65478;SHT31;53678;39.642;22.430;2023-09-30T10:22:33;25.35;66.77
65478;SHT31;53678;39.642;22.430;2023-09-30T10:25:01;25.38;66.63
65478;SHT31;53678;39.642;22.430;2023-09-30T10:27:46;25.30;66.90
65478;SHT31;53678;39.642;22.430;2023-09-30T10:30:13;25.58;67.41
65478;SHT31;53678;39.642;22.430;2023-09-30T10:40:53;26.28;64.57
65478;SHT31;53678;39.642;22.430;2023-09-30T10:43:39;26.46;63.89
65478;SHT31;53678;39.642;22.430;2023-09-30T10:48:52;26.45;64.33
65478;SHT31;53678;39.642;22.430;2023-09-30T10:51:19;26.39;64.62
65478;SHT31;53678;39.642;22.430;2023-09-30T10:53:50;26.48;63.69
65478;SHT31;53678;39.642;22.430;2023-09-30T10:56:23;26.58;63.75
65478;SHT31;53678;39.642;22.430;2023-09-30T10:58:52;26.56;63.61
65478;SHT31;53678;39.642;22.430;2023-09-30T11:01:22;26.52;63.58
65478;SHT31;53678;39.642;22.430;2023-09-30T11:03:49;26.65;62.68
65478;SHT31;53678;39.642;22.430;2023-09-30T11:06:20;26.66;62.31
65478;SHT31;53678;39.642;22.430;2023-09-30T11:08:52;26.95;62.35
65478;SHT31;53678;39.642;22.430;2023-09-30T11:11:19;26.29;62.18
65478;SHT31;53678;39.642;22.430;2023-09-30T11:13:45;26.87;62.52
65478;SHT31;53678;39.642;22.430;2023-09-30T11:16:12;27.04;61.67
65478;SHT31;53678;39.642;22.430;2023-09-30T11:18:38;27.08;61.25
65478;SHT31;53678;39.642;22.430;2023-09-30T11:21:06;26.02;62.35
65478;SHT31;53678;39.642;22.430;2023-09-30T11:23:33;26.07;63.21
65478;SHT31;53678;39.642;22.430;2023-09-30T11:25:59;26.71;62.74
65478;SHT31;53678;39.642;22.430;2023-09-30T11:28:25;26.32;62.80
65478;SHT31;53678;39.642;22.430;2023-09-30T11:31:01;26.63;63.33
65478;SHT31;53678;39.642;22.430;2023-09-30T11:33:28;26.55;61.69
65478;SHT31;53678;39.642;22.430;2023-09-30T11:36:05;26.46;61.48
65478;SHT31;53678;39.642;22.430;2023-09-30T11:38:32;26.24;62.36
65478;SHT31;53678;39.642;22.430;2023-09-30T11:41:05;26.27;61.81
65478;SHT31;53678;39.642;22.430;2023-09-30T11:43:33;26.20;61.82
65478;SHT31;53678;39.642;22.430;2023-09-30T11:46:11;26.31;62.17
65478;SHT31;53678;39.642;22.430;2023-09-30T11:49:00;26.48;61.73
65478;SHT31;53678;39.642;22.430;2023-09-30T11:51:29;26.46;61.56
65478;SHT31;53678;39.642;22.430;2023-09-30T11:53:56;26.25;61.43
65478;SHT31;53678;39.642;22.430;2023-09-30T11:56:25;26.22;61.77
65478;SHT31;53678;39.642;22.430;2023-09-30T11:58:55;26.27;62.00
65478;SHT31;53678;39.642;22.430;2023-09-30T12:01:22;26.42;62.06
65478;SHT31;53678;39.642;22.430;2023-09-30T12:03:48;26.11;62.44
65478;SHT31;53678;39.642;22.430;2023-09-30T12:06:14;26.34;62.08
65478;SHT31;53678;39.642;22.430;2023-09-30T12:08:42;26.28;61.74
65478;SHT31;53678;39.642;22.430;2023-09-30T12:11:08;26.28;62.22
65478;SHT31;53678;39.642;22.430;2023-09-30T12:13:34;26.48;62.12
65478;SHT31;53678;39.642;22.430;2023-09-30T12:16:01;26.32;60.97
65478;SHT31;53678;39.642;22.430;2023-09-30T12:18:26;26.46;60.94
65478;SHT31;53678;39.642;22.430;2023-09-30T12:20:52;26.29;58.75
65478;SHT31;53678;39.642;22.430;2023-09-30T12:23:18;26.28;59.56
65478;SHT31;53678;39.642;22.430;2023-09-30T12:25:48;26.42;59.81
65478;SHT31;53678;39.642;22.430;2023-09-30T12:28:14;26.34;59.69
65478;SHT31;53678;39.642;22.430;2023-09-30T12:30:40;26.38;59.39
65478;SHT31;53678;39.642;22.430;2023-09-30T12:33:07;26.25;59.33
65478;SHT31;53678;39.642;22.430;2023-09-30T12:35:33;26.32;58.76
65478;SHT31;53678;39.642;22.430;2023-09-30T12:38:00;26.22;58.41
65478;SHT31;53678;39.642;22.430;2023-09-30T12:40:26;26.27;57.97
65478;SHT31;53678;39.642;22.430;2023-09-30T12:42:52;26.24;58.52
65478;SHT31;53678;39.642;22.430;2023-09-30T12:45:18;26.31;58.85
65478;SHT31;53678;39.642;22.430;2023-09-30T12:47:44;26.38;58.50
65478;SHT31;53678;39.642;22.430;2023-09-30T12:50:12;26.52;58.02
65478;SHT31;53678;39.642;22.430;2023-09-30T12:52:38;26.69;58.05
65478;SHT31;53678;39.642;22.430;2023-09-30T12:55:04;26.75;57.21
65478;SHT31;53678;39.642;22.430;2023-09-30T12:57:31;26.75;57.76
65478;SHT31;53678;39.642;22.430;2023-09-30T12:59:57;26.69;56.91
65478;SHT31;53678;39.642;22.430;2023-09-30T13:02:23;26.79;56.40
65478;SHT31;53678;39.642;22.430;2023-09-30T13:04:49;26.87;56.77
65478;SHT31;53678;39.642;22.430;2023-09-30T13:07:15;26.76;57.46
65478;SHT31;53678;39.642;22.430;2023-09-30T13:09:42;26.89;57.76
65478;SHT31;53678;39.642;22.430;2023-09-30T13:12:08;26.75;56.70
65478;SHT31;53678;39.642;22.430;2023-09-30T13:14:34;26.76;57.01
65478;SHT31;53678;39.642;22.430;2023-09-30T13:17:00;26.66;56.83
65478;SHT31;53678;39.642;22.430;2023-09-30T13:19:26;26.65;57.25
65478;SHT31;53678;39.642;22.430;2023-09-30T13:21:52;26.53;56.75
65478;SHT31;53678;39.642;22.430;2023-09-30T13:24:19;26.59;56.86
65478;SHT31;53678;39.642;22.430;2023-09-30T13:26:45;26.48;56.94
65478;SHT31;53678;39.642;22.430;2023-09-30T13:29:12;26.45;56.99
65478;SHT31;53678;39.642;22.430;2023-09-30T13:31:39;26.44;55.99
65478;SHT31;53678;39.642;22.430;2023-09-30T13:34:05;26.38;56.02
65478;SHT31;53678;39.642;22.430;2023-09-30T13:36:32;26.38;57.25
65478;SHT31;53678;39.642;22.430;2023-09-30T13:38:57;26.48;56.40
65478;SHT31;53678;39.642;22.430;2023-09-30T13:41:23;26.55;55.50
65478;SHT31;53678;39.642;22.430;2023-09-30T13:43:49;26.49;54.60
65478;SHT31;53678;39.642;22.430;2023-09-30T13:46:14;26.53;54.95
65478;SHT31;53678;39.642;22.430;2023-09-30T13:48:41;26.41;54.61
65478;SHT31;53678;39.642;22.430;2023-09-30T13:51:10;26.41;55.89
65478;SHT31;53678;39.642;22.430;2023-09-30T13:53:37;26.21;56.20
65478;SHT31;53678;39.642;22.430;2023-09-30T13:56:03;26.13;55.31
65478;SHT31;53678;39.642;22.430;2023-09-30T13:58:29;26.02;56.12
65478;SHT31;53678;39.642;22.430;2023-09-30T14:00:55;26.01;55.80
65478;SHT31;53678;39.642;22.430;2023-09-30T14:03:23;26.13;56.59
65478;SHT31;53678;39.642;22.430;2023-09-30T14:05:52;26.13;55.89
65478;SHT31;53678;39.642;22.430;2023-09-30T14:08:18;25.96;57.31
65478;SHT31;53678;39.642;22.430;2023-09-30T14:10:45;26.09;57.54
65478;SHT31;53678;39.642;22.430;2023-09-30T14:13:11;25.97;57.42
65478;SHT31;53678;39.642;22.430;2023-09-30T14:15:37;25.90;56.80
65478;SHT31;53678;39.642;22.430;2023-09-30T14:18:03;25.94;56.51
65478;SHT31;53678;39.642;22.430;2023-09-30T14:20:29;25.90;56.51
65478;SHT31;53678;39.642;22.430;2023-09-30T14:22:55;25.96;56.63
65478;SHT31;53678;39.642;22.430;2023-09-30T14:25:22;25.88;56.46
65478;SHT31;53678;39.642;22.430;2023-09-30T14:27:48;25.87;55.75
65478;SHT31;53678;39.642;22.430;2023-09-30T14:30:15;26.00;56.28
65478;SHT31;53678;39.642;22.430;2023-09-30T14:32:42;26.20;56.42
65478;SHT31;53678;39.642;22.430;2023-09-30T14:35:08;26.27;55.93
65478;SHT31;53678;39.642;22.430;2023-09-30T14:37:35;26.21;55.59
65478;SHT31;53678;39.642;22.430;2023-09-30T14:40:02;26.14;56.44
65478;SHT31;53678;39.642;22.430;2023-09-30T14:42:37;26.20;56.23
65478;SHT31;53678;39.642;22.430;2023-09-30T14:45:03;26.11;56.06
65478;SHT31;53678;39.642;22.430;2023-09-30T14:47:29;26.08;56.09
65478;SHT31;53678;39.642;22.430;2023-09-30T14:49:54;26.04;56.22
65478;SHT31;53678;39.642;22.430;2023-09-30T14:52:20;26.13;56.78
65478;SHT31;53678;39.642;22.430;2023-09-30T14:54:46;26.09;56.51
65478;SHT31;53678;39.642;22.430;2023-09-30T14:57:12;26.04;56.87
65478;SHT31;53678;39.642;22.430;2023-09-30T14:59:40;25.94;56.93
65478;SHT31;53678;39.642;22.430;2023-09-30T15:02:06;26.01;57.29
65478;SHT31;53678;39.642;22.430;2023-09-30T15:04:36;26.04;57.08
65478;SHT31;53678;39.642;22.430;2023-09-30T15:07:03;26.00;57.77
65478;SHT31;53678;39.642;22.430;2023-09-30T15:09:29;26.02;57.62
65478;SHT31;53678;39.642;22.430;2023-09-30T15:11:55;25.98;57.53
65478;SHT31;53678;39.642;22.430;2023-09-30T15:14:20;26.00;57.81
65478;SHT31;53678;39.642;22.430;2023-09-30T15:16:46;25.90;58.09
65478;SHT31;53678;39.642;22.430;2023-09-30T15:19:12;25.84;58.45
65478;SHT31;53678;39.642;22.430;2023-09-30T15:21:38;25.80;58.63
65478;SHT31;53678;39.642;22.430;2023-09-30T15:24:04;25.70;58.44
65478;SHT31;53678;39.642;22.430;2023-09-30T15:26:30;25.71;58.84
65478;SHT31;53678;39.642;22.430;2023-09-30T15:28:57;25.69;59.24
65478;SHT31;53678;39.642;22.430;2023-09-30T15:31:32;25.76;59.59
65478;SHT31;53678;39.642;22.430;2023-09-30T15:33:58;25.80;59.37